Time;durP1;ratioP1;P1;durP2;ratioP2;P2;SDS_P1;SDS_P2;PMS_P1;PMS_P2;Temp;Humidity;BMP_temperature;BMP_pressure;BME280_temperature;BME280_humidity;BME280_pressure;Samples;Min_cycle;Max_cycle;Signal;HPM_P1;HPM_P2
2024/01/08 00:00:39;;;;;;;5.40;2.92;;;1.40;94.20;;;;;;5042928;28;20576;-76
2024/01/08 00:03:29;;;;;;;4.10;2.58;;;1.40;93.50;;;;;;5040978;28;20255;-76
2024/01/08 00:06:17;;;;;;;3.88;3.25;;;1.40;93.60;;;;;;5038763;28;20197;-76
2024/01/08 00:09:04;;;;;;;3.85;3.45;;;1.40;93.90;;;;;;5047289;28;20240;-75
2024/01/08 00:11:50;;;;;;;4.35;3.35;;;1.40;93.40;;;;;;5035821;28;20201;-75
2024/01/08 00:14:35;;;;;;;3.75;3.05;;;1.40;93.20;;;;;;5043899;28;20749;-76
2024/01/08 00:17:21;;;;;;;4.07;2.63;;;1.50;94.00;;;;;;5044985;28;20307;-75
2024/01/08 00:20:10;;;;;;;3.25;2.70;;;1.50;93.70;;;;;;5037671;28;20208;-73
2024/01/08 00:22:56;;;;;;;4.57;3.05;;;1.50;93.80;;;;;;5033968;28;20251;-75
2024/01/08 00:25:42;;;;;;;5.03;2.95;;;1.50;93.70;;;;;;5023987;28;20341;-75
2024/01/08 00:28:27;;;;;;;4.63;3.20;;;1.50;94.30;;;;;;5019486;28;20702;-76
2024/01/08 00:31:13;;;;;;;4.93;2.95;;;1.60;94.20;;;;;;5039733;28;20261;-74
2024/01/08 00:33:59;;;;;;;3.75;2.67;;;1.60;94.30;;;;;;5038272;28;20220;-75
2024/01/08 00:36:47;;;;;;;3.30;2.72;;;1.60;94.10;;;;;;5024481;28;20258;-75
2024/01/08 00:39:33;;;;;;;3.38;3.03;;;1.60;94.10;;;;;;5042013;28;20244;-75
2024/01/08 00:42:18;;;;;;;4.45;3.33;;;1.60;94.60;;;;;;5045770;28;20696;-74
2024/01/08 00:45:05;;;;;;;4.50;2.60;;;1.60;94.60;;;;;;5046553;28;20312;-75
2024/01/08 00:47:50;;;;;;;6.15;2.95;;;1.60;94.00;;;;;;5033758;28;20580;-75
2024/01/08 00:50:36;;;;;;;3.60;2.78;;;1.60;93.90;;;;;;5031946;28;20256;-75
2024/01/08 00:53:23;;;;;;;6.18;2.83;;;1.60;94.00;;;;;;5043077;28;20791;-75
2024/01/08 00:56:08;;;;;;;3.35;2.75;;;1.50;94.40;;;;;;5036113;28;20213;-75
2024/01/08 00:58:56;;;;;;;2.78;2.40;;;1.60;94.40;;;;;;5048512;28;20225;-75
2024/01/08 01:01:41;;;;;;;4.47;2.78;;;1.70;93.40;;;;;;5043739;28;20210;-75
2024/01/08 01:04:27;;;;;;;3.78;2.67;;;1.70;93.90;;;;;;5036627;28;20205;-74
2024/01/08 01:07:13;;;;;;;3.10;2.50;;;1.70;94.10;;;;;;5031105;28;20744;-75
2024/01/08 01:10:00;;;;;;;3.50;2.95;;;1.70;94.50;;;;;;5026910;28;20201;-74
2024/01/08 01:12:46;;;;;;;2.63;2.40;;;1.70;94.10;;;;;;5043500;28;20224;-75
2024/01/08 01:15:32;;;;;;;3.17;2.42;;;1.70;94.50;;;;;;5028009;28;20353;-75
2024/01/08 01:18:17;;;;;;;3.20;2.67;;;1.60;94.40;;;;;;5043921;28;20266;-75
2024/01/08 01:21:03;;;;;;;3.22;2.50;;;1.60;94.60;;;;;;5024222;28;20221;-75
2024/01/08 01:23:48;;;;;;;3.30;2.60;;;1.70;93.90;;;;;;5030212;28;20325;-75
2024/01/08 01:26:35;;;;;;;3.28;2.42;;;1.70;93.90;;;;;;5038289;28;20208;-74
2024/01/08 01:29:20;;;;;;;3.35;2.70;;;1.70;93.70;;;;;;5052344;28;20593;-75
2024/01/08 01:32:07;;;;;;;3.58;2.38;;;1.70;93.40;;;;;;5045657;28;20204;-74
2024/01/08 01:34:53;;;;;;;3.88;2.55;;;1.70;93.60;;;;;;5052636;28;20205;-75
2024/01/08 01:37:41;;;;;;;4.30;2.63;;;1.60;93.90;;;;;;5046669;28;20594;-75
2024/01/08 01:40:27;;;;;;;2.70;2.42;;;1.50;94.60;;;;;;5041741;28;20347;-75
2024/01/08 01:43:26;;;;;;;3.28;1.90;;;1.50;93.40;;;;;;5034535;28;20208;-74
2024/01/08 01:46:22;;;;;;;3.05;2.33;;;1.50;94.20;;;;;;5031711;28;20201;-75
2024/01/08 01:49:09;;;;;;;3.38;2.70;;;1.50;94.00;;;;;;5047036;28;20237;-75
2024/01/08 01:51:57;;;;;;;5.22;1.98;;;1.50;92.70;;;;;;5048665;28;20200;-75
2024/01/08 01:54:44;;;;;;;3.63;2.20;;;1.50;93.20;;;;;;5048152;28;20212;-74
2024/01/08 01:57:29;;;;;;;2.97;2.50;;;1.50;93.00;;;;;;5049154;28;20213;-75
2024/01/08 02:00:16;;;;;;;3.38;2.78;;;1.50;92.70;;;;;;5037860;28;20211;-75
2024/01/08 02:03:03;;;;;;;2.67;2.00;;;1.50;92.70;;;;;;5027646;28;20201;-75
2024/01/08 02:05:49;;;;;;;2.13;1.92;;;1.60;92.40;;;;;;5030628;28;20208;-75
2024/01/08 02:08:35;;;;;;;2.50;2.00;;;1.60;92.20;;;;;;5042300;28;20283;-75
2024/01/08 02:11:21;;;;;;;5.22;2.35;;;1.50;92.30;;;;;;5033246;28;20814;-75
2024/01/08 02:14:06;;;;;;;3.17;2.30;;;1.60;92.80;;;;;;5035950;28;20706;-75
2024/01/08 02:16:53;;;;;;;2.70;2.10;;;1.60;93.60;;;;;;5031713;28;20228;-75
2024/01/08 02:19:39;;;;;;;3.15;2.10;;;1.60;93.10;;;;;;5032539;28;20721;-75
2024/01/08 02:22:24;;;;;;;3.38;2.10;;;1.60;92.80;;;;;;5030639;28;20316;-75
2024/01/08 02:25:12;;;;;;;4.60;2.20;;;1.50;92.70;;;;;;5039121;28;20210;-74
2024/01/08 02:27:57;;;;;;;3.85;2.05;;;1.50;92.70;;;;;;5036794;28;20342;-74
2024/01/08 02:30:43;;;;;;;4.20;2.40;;;1.50;92.70;;;;;;5042640;28;20291;-75
2024/01/08 02:33:29;;;;;;;2.97;1.90;;;1.50;92.10;;;;;;5032416;28;20225;-75
2024/01/08 02:36:15;;;;;;;4.43;2.15;;;1.50;92.70;;;;;;5044724;28;20201;-75
2024/01/08 02:39:00;;;;;;;2.90;2.42;;;1.60;92.50;;;;;;5036855;28;20356;-75
2024/01/08 02:41:47;;;;;;;2.50;2.28;;;1.60;92.20;;;;;;5036789;28;20628;-75
2024/01/08 02:44:33;;;;;;;3.83;2.38;;;1.60;91.20;;;;;;5034973;28;20332;-75
2024/01/08 02:47:19;;;;;;;3.25;2.05;;;1.50;90.60;;;;;;5032730;28;20205;-75
2024/01/08 02:50:06;;;;;;;2.70;2.45;;;1.50;90.80;;;;;;5028246;28;20728;-75
2024/01/08 02:52:51;;;;;;;3.53;2.50;;;1.50;91.70;;;;;;5025730;28;20622;-75
2024/01/08 02:55:37;;;;;;;3.33;2.40;;;1.50;91.40;;;;;;5020044;28;20210;-75
2024/01/08 02:58:24;;;;;;;3.50;2.45;;;1.50;91.20;;;;;;5030338;28;20343;-74
2024/01/08 03:01:09;;;;;;;2.90;2.15;;;1.50;91.40;;;;;;5027707;28;20202;-75
2024/01/08 03:03:55;;;;;;;3.40;2.30;;;1.50;91.60;;;;;;5026024;28;20208;-75
2024/01/08 03:06:41;;;;;;;3.22;2.42;;;1.50;90.90;;;;;;5025093;28;20206;-75
2024/01/08 03:09:26;;;;;;;2.70;2.25;;;1.50;90.60;;;;;;5024355;28;20302;-75
2024/01/08 03:12:13;;;;;;;3.25;2.05;;;1.60;90.60;;;;;;5033951;28;20198;-76
2024/01/08 03:15:00;;;;;;;3.42;2.50;;;1.60;90.30;;;;;;5029711;28;20208;-75
2024/01/08 03:17:46;;;;;;;3.25;2.28;;;1.50;90.80;;;;;;5043203;28;20212;-75
2024/01/08 03:20:31;;;;;;;3.40;2.40;;;1.60;90.90;;;;;;5020023;28;20336;-75
2024/01/08 03:23:17;;;;;;;3.25;2.20;;;1.50;88.30;;;;;;5018894;28;20202;-75
2024/01/08 03:26:03;;;;;;;3.20;2.20;;;1.40;87.60;;;;;;5022612;28;20209;-75
2024/01/08 03:28:48;;;;;;;3.90;2.00;;;1.50;87.80;;;;;;5032234;28;20225;-75
2024/01/08 03:31:41;;;;;;;2.75;2.20;;;1.40;86.50;;;;;;5036589;28;20210;-75
2024/01/08 03:34:27;;;;;;;4.03;2.63;;;1.40;84.20;;;;;;5031157;28;20837;-75
2024/01/08 03:37:12;;;;;;;2.60;1.88;;;1.30;82.70;;;;;;5017406;28;20329;-75
2024/01/08 03:39:58;;;;;;;3.55;2.53;;;1.30;81.50;;;;;;5033096;28;20352;-75
2024/01/08 03:42:44;;;;;;;3.28;2.33;;;1.30;82.00;;;;;;5032541;28;20213;-75
2024/01/08 03:45:30;;;;;;;3.25;2.20;;;1.30;81.00;;;;;;5027676;28;20292;-75
2024/01/08 03:48:17;;;;;;;3.40;2.75;;;1.30;80.20;;;;;;5022465;28;20364;-75
2024/01/08 03:51:02;;;;;;;3.88;2.67;;;1.30;79.00;;;;;;5030626;28;20351;-75
2024/01/08 03:53:48;;;;;;;2.53;2.10;;;1.20;79.40;;;;;;5022751;28;20210;-75
2024/01/08 03:56:34;;;;;;;5.78;2.30;;;1.20;81.00;;;;;;5023200;28;20222;-75
2024/01/08 03:59:19;;;;;;;3.22;2.20;;;1.20;80.90;;;;;;5022542;28;20281;-75
2024/01/08 04:02:05;;;;;;;2.72;2.20;;;1.30;80.50;;;;;;5017790;28;20308;-75
2024/01/08 04:04:52;;;;;;;4.05;2.65;;;1.30;80.90;;;;;;5020844;28;20209;-75
2024/01/08 04:07:37;;;;;;;2.92;2.35;;;1.40;80.90;;;;;;5043712;28;20205;-75
2024/01/08 04:10:23;;;;;;;4.13;2.97;;;1.40;80.90;;;;;;5031187;28;20282;-76
2024/01/08 04:13:08;;;;;;;5.28;3.30;;;1.40;80.90;;;;;;5018738;28;20205;-75
2024/01/08 04:15:54;;;;;;;3.92;2.40;;;1.40;79.10;;;;;;5022677;28;20221;-74
2024/01/08 04:18:40;;;;;;;4.22;3.10;;;1.40;79.10;;;;;;5035266;28;20318;-74
2024/01/08 04:21:27;;;;;;;2.80;2.25;;;1.40;77.90;;;;;;5032201;28;20203;-75
2024/01/08 04:24:13;;;;;;;3.80;2.75;;;1.40;77.60;;;;;;5023401;28;20205;-75
2024/01/08 04:26:58;;;;;;;3.03;2.38;;;1.30;77.40;;;;;;5038133;28;20324;-75
2024/01/08 04:29:44;;;;;;;4.40;2.97;;;1.30;76.00;;;;;;5035172;28;20255;-76
2024/01/08 04:32:30;;;;;;;3.60;2.72;;;1.30;76.40;;;;;;5030590;28;20320;-75
2024/01/08 04:35:16;;;;;;;4.70;3.25;;;1.30;76.10;;;;;;5034867;28;20200;-75
2024/01/08 04:38:03;;;;;;;3.00;2.40;;;1.30;77.50;;;;;;5034383;28;20225;-75
2024/01/08 04:40:48;;;;;;;4.30;3.00;;;1.40;77.00;;;;;;5038672;28;20200;-74
2024/01/08 04:43:34;;;;;;;4.72;2.42;;;1.40;76.60;;;;;;5028185;28;20213;-75
2024/01/08 04:46:20;;;;;;;3.55;2.50;;;1.30;75.40;;;;;;5022548;28;20202;-75
2024/01/08 04:49:06;;;;;;;4.60;2.65;;;1.30;75.60;;;;;;5021310;28;20220;-75
2024/01/08 04:51:51;;;;;;;3.35;2.75;;;1.20;76.40;;;;;;5044961;28;20200;-75
2024/01/08 04:54:41;;;;;;;4.95;3.20;;;1.20;77.00;;;;;;5034626;28;20212;-75
2024/01/08 04:57:28;;;;;;;3.90;2.85;;;1.20;76.40;;;;;;5026622;28;20340;-74
2024/01/08 05:00:14;;;;;;;3.65;2.92;;;1.20;76.20;;;;;;5027539;28;20367;-75
2024/01/08 05:03:00;;;;;;;3.03;2.35;;;1.20;77.80;;;;;;5042545;28;20324;-75
2024/01/08 05:05:46;;;;;;;3.28;2.95;;;1.20;77.00;;;;;;5030028;28;20205;-75
2024/01/08 05:08:32;;;;;;;3.42;2.90;;;1.30;76.70;;;;;;5030832;28;20224;-75
2024/01/08 05:11:18;;;;;;;3.20;2.50;;;1.30;75.90;;;;;;5034967;28;20280;-75
2024/01/08 05:14:04;;;;;;;4.00;2.90;;;1.20;78.40;;;;;;5032569;28;20225;-75
2024/01/08 05:16:50;;;;;;;3.42;2.60;;;1.30;76.50;;;;;;5041353;28;20214;-75
2024/01/08 05:19:35;;;;;;;3.70;2.92;;;1.30;78.70;;;;;;5023872;28;20226;-75
2024/01/08 05:22:21;;;;;;;3.33;2.40;;;1.30;81.50;;;;;;5033552;28;20676;-75
2024/01/08 05:25:08;;;;;;;3.50;3.15;;;1.30;78.20;;;;;;5041043;28;20282;-75
2024/01/08 05:27:54;;;;;;;3.67;2.55;;;1.40;76.00;;;;;;5031159;28;20233;-75
2024/01/08 05:30:40;;;;;;;3.22;2.78;;;1.40;75.90;;;;;;5037682;28;20248;-75
2024/01/08 05:33:27;;;;;;;3.63;2.60;;;1.40;76.90;;;;;;5031006;28;20210;-74
2024/01/08 05:36:12;;;;;;;4.95;2.80;;;1.30;75.90;;;;;;5037212;28;20249;-75
2024/01/08 05:38:59;;;;;;;5.30;2.97;;;1.30;76.60;;;;;;5031391;28;20565;-75
2024/01/08 05:41:45;;;;;;;3.17;2.65;;;1.30;76.40;;;;;;5028301;28;20598;-75
2024/01/08 05:44:32;;;;;;;4.50;2.90;;;1.40;76.10;;;;;;5036417;28;20248;-75
2024/01/08 05:47:17;;;;;;;3.50;2.95;;;1.40;74.60;;;;;;5025726;28;20195;-75
2024/01/08 05:50:04;;;;;;;3.97;2.95;;;1.30;74.60;;;;;;5027759;28;20569;-76
2024/01/08 05:52:50;;;;;;;3.95;3.15;;;1.30;74.80;;;;;;5032133;28;20206;-75
2024/01/08 05:55:35;;;;;;;4.53;3.30;;;1.40;76.10;;;;;;5038690;28;20645;-75
2024/01/08 05:58:21;;;;;;;3.53;2.88;;;1.40;75.50;;;;;;5031901;28;20221;-75
2024/01/08 06:01:08;;;;;;;4.13;2.40;;;1.30;74.80;;;;;;5036339;28;20235;-74
2024/01/08 06:03:53;;;;;;;3.70;3.05;;;1.30;76.50;;;;;;5042231;28;20597;-75
2024/01/08 06:06:39;;;;;;;3.33;2.60;;;1.30;74.20;;;;;;5032158;28;20290;-75
2024/01/08 06:09:25;;;;;;;3.40;2.75;;;1.20;74.50;;;;;;5034741;28;20247;-75
2024/01/08 06:12:11;;;;;;;3.83;2.80;;;1.20;76.10;;;;;;5027614;28;20300;-75
2024/01/08 06:14:57;;;;;;;5.93;3.33;;;1.20;75.30;;;;;;5041448;28;20243;-75
2024/01/08 06:17:44;;;;;;;3.15;2.65;;;1.30;74.60;;;;;;5038848;28;20258;-75
2024/01/08 06:20:30;;;;;;;4.60;3.17;;;1.30;74.60;;;;;;5039525;28;20728;-75
2024/01/08 06:23:15;;;;;;;4.22;3.03;;;1.40;73.50;;;;;;5034124;28;20205;-75
2024/01/08 06:26:03;;;;;;;4.35;2.75;;;1.40;73.10;;;;;;5027452;28;20208;-75
2024/01/08 06:28:49;;;;;;;5.10;3.33;;;1.30;72.90;;;;;;5040076;28;20713;-75
2024/01/08 06:31:34;;;;;;;3.20;2.53;;;1.30;72.20;;;;;;5029181;28;20206;-75
2024/01/08 06:34:21;;;;;;;3.25;2.85;;;1.30;74.60;;;;;;5025625;28;20202;-75
2024/01/08 06:37:07;;;;;;;3.30;2.55;;;1.20;73.30;;;;;;5037852;28;20290;-75
2024/01/08 06:39:53;;;;;;;3.67;2.97;;;1.20;73.90;;;;;;5037652;28;20237;-75
2024/01/08 06:42:38;;;;;;;4.28;2.90;;;1.10;73.10;;;;;;5042933;28;20680;-75
2024/01/08 06:45:24;;;;;;;4.28;3.20;;;1.10;75.10;;;;;;5040483;28;20756;-75
2024/01/08 06:48:09;;;;;;;3.55;2.63;;;1.10;72.80;;;;;;5032287;28;20746;-74
2024/01/08 06:50:57;;;;;;;3.20;2.78;;;1.10;74.40;;;;;;5034169;28;20690;-75
2024/01/08 06:53:42;;;;;;;4.30;2.63;;;1.10;74.70;;;;;;5054111;28;20403;-75
2024/01/08 06:56:28;;;;;;;6.90;4.10;;;1.00;74.30;;;;;;5026673;28;20217;-74
2024/01/08 06:59:15;;;;;;;9.30;5.78;;;1.10;74.90;;;;;;5036769;28;20409;-75
2024/01/08 07:02:01;;;;;;;7.00;3.72;;;1.10;73.70;;;;;;5027625;28;20212;-75
2024/01/08 07:04:46;;;;;;;3.95;2.85;;;1.10;72.80;;;;;;5031944;28;20241;-75
2024/01/08 07:07:35;;;;;;;3.10;2.80;;;1.10;71.90;;;;;;5036845;28;20212;-75
2024/01/08 07:10:21;;;;;;;5.03;3.97;;;1.00;72.90;;;;;;5026574;28;20592;-75
2024/01/08 07:13:07;;;;;;;5.35;3.50;;;1.00;72.80;;;;;;5037319;28;20205;-75
2024/01/08 07:15:53;;;;;;;4.50;3.40;;;1.00;72.00;;;;;;5046824;28;20209;-75
2024/01/08 07:18:38;;;;;;;5.45;4.32;;;1.00;74.30;;;;;;5027550;28;20229;-75
2024/01/08 07:21:25;;;;;;;11.57;6.25;;;1.00;74.40;;;;;;5042859;28;20200;-75
2024/01/08 07:24:13;;;;;;;6.72;5.40;;;1.10;73.90;;;;;;5028659;28;20228;-75
2024/01/08 07:26:59;;;;;;;4.97;3.47;;;1.10;74.40;;;;;;5038708;28;20684;-75
2024/01/08 07:29:46;;;;;;;5.80;3.10;;;1.10;72.90;;;;;;5040171;28;20306;-75
2024/01/08 07:32:31;;;;;;;4.90;3.75;;;1.10;72.90;;;;;;5038693;28;20545;-76
2024/01/08 07:35:17;;;;;;;5.75;3.45;;;1.10;74.40;;;;;;5044066;28;20215;-75
2024/01/08 07:38:02;;;;;;;4.45;3.75;;;1.00;72.60;;;;;;5037313;28;20723;-75
2024/01/08 07:40:49;;;;;;;5.75;3.97;;;1.00;74.30;;;;;;5031596;28;20295;-75
2024/01/08 07:43:36;;;;;;;5.70;3.55;;;1.00;74.30;;;;;;5026329;28;20210;-75
2024/01/08 07:46:21;;;;;;;6.57;3.63;;;1.00;76.70;;;;;;5036412;28;20716;-75
2024/01/08 07:49:07;;;;;;;4.38;3.65;;;1.10;75.00;;;;;;5047135;28;20229;-75
2024/01/08 07:51:53;;;;;;;5.20;3.90;;;1.10;74.50;;;;;;5045438;28;20219;-75
2024/01/08 07:54:39;;;;;;;4.00;3.60;;;1.20;73.90;;;;;;5033668;28;20283;-74
2024/01/08 07:57:26;;;;;;;5.05;3.38;;;1.10;73.50;;;;;;5027101;28;20209;-75
2024/01/08 08:00:13;;;;;;;6.03;4.00;;;1.10;73.80;;;;;;5031504;28;20290;-75
2024/01/08 08:02:58;;;;;;;4.78;3.72;;;1.10;74.50;;;;;;5043321;28;20632;-75
2024/01/08 08:05:44;;;;;;;6.25;3.80;;;1.00;74.40;;;;;;5039156;28;20205;-75
2024/01/08 08:08:31;;;;;;;5.45;3.25;;;1.00;75.10;;;;;;5034771;28;20367;-75
2024/01/08 08:11:16;;;;;;;6.30;4.95;;;1.00;74.60;;;;;;5034388;28;20202;-75
2024/01/08 08:14:03;;;;;;;8.40;6.13;;;1.10;76.20;;;;;;5051896;28;20207;-75
2024/01/08 08:16:48;;;;;;;13.27;7.03;;;1.10;78.10;;;;;;5045822;28;20254;-76
2024/01/08 08:19:34;;;;;;;10.25;5.55;;;1.00;77.10;;;;;;5044101;28;20260;-75
2024/01/08 08:22:20;;;;;;;7.03;4.63;;;1.10;75.40;;;;;;5045993;28;20252;-75
2024/01/08 08:25:07;;;;;;;4.40;3.35;;;1.00;76.00;;;;;;5037894;28;20274;-74
2024/01/08 08:27:53;;;;;;;5.07;4.03;;;1.00;76.20;;;;;;5048126;28;20225;-75
2024/01/08 08:30:40;;;;;;;5.05;3.58;;;1.00;77.10;;;;;;5040874;28;20213;-75
2024/01/08 08:33:26;;;;;;;4.78;3.85;;;1.00;75.70;;;;;;5034362;28;20196;-75
2024/01/08 08:36:11;;;;;;;5.72;3.80;;;1.00;75.10;;;;;;5051411;28;20207;-75
2024/01/08 08:38:58;;;;;;;4.72;3.50;;;1.00;77.10;;;;;;5039341;28;20347;-75
2024/01/08 08:41:45;;;;;;;5.97;4.10;;;1.00;77.60;;;;;;5039217;28;20788;-75
2024/01/08 08:44:30;;;;;;;5.93;4.07;;;0.90;76.00;;;;;;5048067;28;20202;-75
2024/01/08 08:47:18;;;;;;;6.43;4.65;;;0.90;76.70;;;;;;5036654;28;20319;-75
2024/01/08 08:50:04;;;;;;;5.65;4.20;;;0.90;78.50;;;;;;5032586;28;20219;-75
2024/01/08 08:52:50;;;;;;;5.00;3.72;;;0.90;78.10;;;;;;5037158;28;20622;-75
2024/01/08 08:55:35;;;;;;;5.90;4.53;;;1.00;75.60;;;;;;5033533;28;20241;-75
2024/01/08 08:58:23;;;;;;;5.15;3.72;;;1.00;72.80;;;;;;5034857;28;20307;-74
2024/01/08 09:01:11;;;;;;;7.50;4.82;;;1.10;72.70;;;;;;5041426;28;20232;-75
2024/01/08 09:03:58;;;;;;;7.05;5.32;;;1.10;73.10;;;;;;5042528;28;20205;-75
2024/01/08 09:06:43;;;;;;;4.75;3.80;;;1.10;71.00;;;;;;5039164;28;20306;-75
2024/01/08 09:09:29;;;;;;;7.15;4.15;;;1.00;70.70;;;;;;5050444;28;20254;-75
2024/01/08 09:12:15;;;;;;;4.85;3.67;;;1.00;71.50;;;;;;5047301;28;20606;-75
2024/01/08 09:15:01;;;;;;;5.03;3.70;;;0.90;71.10;;;;;;5043837;28;20627;-75
2024/01/08 09:17:46;;;;;;;9.25;4.53;;;0.90;70.90;;;;;;5052676;28;20277;-75
2024/01/08 09:20:33;;;;;;;5.72;4.25;;;0.90;69.80;;;;;;5031036;28;20225;-75
2024/01/08 09:23:19;;;;;;;6.47;4.85;;;0.90;66.40;;;;;;5048138;28;20212;-75
2024/01/08 09:26:05;;;;;;;5.50;3.70;;;0.80;67.40;;;;;;5032970;28;20211;-75
2024/01/08 09:28:51;;;;;;;5.40;3.75;;;0.80;66.70;;;;;;5037493;28;20740;-75
2024/01/08 09:31:37;;;;;;;6.07;4.20;;;0.80;64.90;;;;;;5034505;28;20288;-75
2024/01/08 09:34:22;;;;;;;5.30;3.65;;;0.80;64.60;;;;;;5039642;28;20224;-75
2024/01/08 09:37:09;;;;;;;4.38;3.65;;;0.80;62.00;;;;;;5043009;28;20251;-75
2024/01/08 09:39:56;;;;;;;6.05;3.90;;;0.80;62.40;;;;;;5042024;28;20287;-75
2024/01/08 09:42:41;;;;;;;5.82;3.63;;;0.80;60.40;;;;;;5039245;28;20711;-76
2024/01/08 09:45:29;;;;;;;5.75;4.38;;;0.70;55.50;;;;;;5047340;28;20201;-75
2024/01/08 09:48:15;;;;;;;5.70;4.07;;;0.60;55.90;;;;;;5040379;28;20232;-75
2024/01/08 09:51:01;;;;;;;7.00;4.60;;;0.50;52.90;;;;;;5032423;28;20254;-76
2024/01/08 09:53:49;;;;;;;5.60;4.45;;;0.40;53.00;;;;;;5039524;28;20264;-75
2024/01/08 09:56:35;;;;;;;5.93;4.38;;;0.50;49.10;;;;;;5032992;28;20225;-75
2024/01/08 09:59:20;;;;;;;5.72;4.00;;;0.40;43.30;;;;;;5039255;28;20224;-75
2024/01/08 10:02:15;;;;;;;6.15;4.47;;;0.40;41.50;;;;;;5036824;28;20310;-75
2024/01/08 10:05:02;;;;;;;6.05;4.90;;;0.40;41.40;;;;;;5035004;28;20202;-75
2024/01/08 10:07:47;;;;;;;5.78;4.50;;;0.40;40.90;;;;;;5033698;28;20217;-75
2024/01/08 10:10:34;;;;;;;5.15;4.25;;;0.40;40.20;;;;;;5042518;28;20300;-73
2024/01/08 10:13:20;;;;;;;8.25;4.25;;;0.40;38.80;;;;;;5040161;28;20236;-75
2024/01/08 10:16:06;;;;;;;4.85;3.58;;;0.40;39.20;;;;;;5041981;28;20352;-74
2024/01/08 10:18:52;;;;;;;6.53;4.15;;;0.40;40.90;;;;;;5040867;28;20315;-74
2024/01/08 10:21:38;;;;;;;5.60;4.00;;;0.50;40.00;;;;;;5036366;28;20248;-75
2024/01/08 10:24:25;;;;;;;9.95;4.45;;;0.50;38.70;;;;;;5036582;28;20335;-75
2024/01/08 10:27:12;;;;;;;7.18;4.00;;;0.40;38.40;;;;;;5039933;28;20659;-75
2024/01/08 10:29:58;;;;;;;6.35;4.00;;;0.40;38.50;;;;;;5040878;28;20343;-74
2024/01/08 10:32:45;;;;;;;6.95;4.55;;;0.50;38.90;;;;;;5036472;28;20205;-75
2024/01/08 10:35:30;;;;;;;6.13;4.65;;;0.40;39.40;;;;;;5041178;28;20202;-75
2024/01/08 10:38:16;;;;;;;6.53;4.43;;;0.60;38.20;;;;;;5039292;28;20232;-75
2024/01/08 10:41:03;;;;;;;4.75;4.15;;;0.80;38.70;;;;;;5035104;28;20235;-75
2024/01/08 10:43:50;;;;;;;6.43;4.45;;;1.10;37.00;;;;;;5037486;28;20325;-75
2024/01/08 10:46:46;;;;;;;7.43;4.47;;;1.20;35.00;;;;;;5047726;28;20208;-75
2024/01/08 10:49:33;;;;;;;6.53;5.13;;;1.50;33.30;;;;;;5047315;28;20226;-74
2024/01/08 10:52:25;;;;;;;5.70;4.22;;;2.00;27.70;;;;;;5048532;28;20200;-74
2024/01/08 10:55:14;;;;;;;5.45;4.00;;;2.20;26.40;;;;;;5043346;28;20280;-75
2024/01/08 10:58:05;;;;;;;7.20;4.50;;;2.30;24.30;;;;;;5040139;28;20747;-74
2024/01/08 11:00:53;;;;;;;5.20;3.80;;;2.10;24.40;;;;;;5045007;28;20225;-74
2024/01/08 11:03:38;;;;;;;4.70;3.92;;;2.00;24.50;;;;;;5041634;28;20255;-75
2024/01/08 11:06:25;;;;;;;7.38;4.25;;;1.80;26.00;;;;;;5033655;28;20677;-75
2024/01/08 11:09:24;;;;;;;6.15;4.32;;;1.70;25.90;;;;;;5033331;28;20790;-74
2024/01/08 11:12:11;;;;;;;5.03;3.67;;;1.60;27.40;;;;;;5037049;28;20684;-74
2024/01/08 11:15:02;;;;;;;6.05;4.60;;;1.60;29.00;;;;;;5039672;28;20580;-74
2024/01/08 11:17:53;;;;;;;4.45;3.88;;;1.50;30.90;;;;;;5033911;28;20214;-74
2024/01/08 11:20:48;;;;;;;6.60;4.47;;;1.30;31.00;;;;;;5036385;28;20680;-74
2024/01/08 11:23:41;;;;;;;7.15;4.30;;;1.20;31.70;;;;;;5031647;28;20213;-74
2024/01/08 11:26:28;;;;;;;8.85;4.68;;;1.20;32.40;;;;;;5033783;28;20225;-74
2024/01/08 11:29:16;;;;;;;6.53;4.70;;;1.20;31.70;;;;;;5041071;28;20283;-75
2024/01/08 11:32:24;;;;;;;6.50;4.70;;;1.10;33.20;;;;;;5037845;28;20291;-74
2024/01/08 11:35:13;;;;;;;5.68;4.50;;;0.90;31.90;;;;;;5033457;28;20350;-75
2024/01/08 11:38:24;;;;;;;7.75;5.85;;;0.90;33.20;;;;;;5042804;28;20716;-75
2024/01/08 11:41:12;;;;;;;6.47;4.63;;;0.90;36.00;;;;;;5043496;28;20720;-74
2024/01/08 11:43:58;;;;;;;8.85;5.25;;;0.90;37.90;;;;;;5035148;28;20205;-75
2024/01/08 11:46:44;;;;;;;6.13;4.45;;;1.00;35.80;;;;;;5035356;28;20209;-75
2024/01/08 11:49:29;;;;;;;5.50;4.32;;;1.00;36.80;;;;;;5031762;28;20245;-74
2024/01/08 11:52:16;;;;;;;6.15;4.45;;;1.00;34.50;;;;;;5031964;28;20198;-75
2024/01/08 11:55:04;;;;;;;7.93;4.88;;;0.90;32.70;;;;;;5044509;28;20208;-75
2024/01/08 11:57:50;;;;;;;10.48;5.13;;;0.90;32.00;;;;;;5036021;28;20267;-74
2024/01/08 12:00:36;;;;;;;6.10;4.50;;;0.80;31.90;;;;;;5036503;28;20231;-75
2024/01/08 12:03:23;;;;;;;6.43;4.85;;;0.70;33.40;;;;;;5037226;28;20272;-75
2024/01/08 12:06:09;;;;;;;7.03;5.35;;;0.70;34.80;;;;;;5038750;28;20263;-74
2024/01/08 12:08:57;;;;;;;5.75;4.57;;;0.70;34.60;;;;;;5034206;28;20240;-74
2024/01/08 12:11:42;;;;;;;6.75;5.18;;;0.70;36.70;;;;;;5028672;28;20227;-75
2024/01/08 12:14:28;;;;;;;6.90;5.50;;;0.70;37.60;;;;;;5040609;28;20246;-75
2024/01/08 12:17:15;;;;;;;8.45;5.57;;;0.70;36.80;;;;;;5037539;28;20209;-76
2024/01/08 12:20:03;;;;;;;6.70;5.22;;;0.80;34.20;;;;;;5040646;28;20199;-74
2024/01/08 12:22:49;;;;;;;7.20;5.30;;;0.70;30.70;;;;;;5050934;28;20590;-75
2024/01/08 12:25:36;;;;;;;8.77;6.07;;;0.70;31.30;;;;;;5028315;28;20211;-75
2024/01/08 12:28:21;;;;;;;7.30;5.65;;;0.70;32.30;;;;;;5039151;28;20232;-75
2024/01/08 12:31:07;;;;;;;7.93;5.82;;;0.60;30.40;;;;;;5040894;28;20197;-74
2024/01/08 12:33:53;;;;;;;6.25;5.00;;;0.60;32.20;;;;;;5040767;28;20204;-74
2024/01/08 12:36:39;;;;;;;10.40;5.93;;;0.70;30.30;;;;;;5030418;28;20197;-75
2024/01/08 12:39:25;;;;;;;8.02;6.15;;;0.70;29.70;;;;;;5029347;28;20707;-75
2024/01/08 12:42:15;;;;;;;7.47;5.30;;;0.90;31.10;;;;;;5029321;28;20303;-73
2024/01/08 12:45:00;;;;;;;6.63;5.78;;;1.10;28.70;;;;;;5032336;28;20343;-75
2024/01/08 12:47:45;;;;;;;10.75;6.30;;;1.30;28.10;;;;;;5040888;28;20213;-74
2024/01/08 12:50:31;;;;;;;9.23;6.15;;;1.30;27.20;;;;;;5032689;28;20308;-74
2024/01/08 12:53:17;;;;;;;9.93;5.68;;;1.40;26.90;;;;;;5033904;28;20202;-74
2024/01/08 12:56:02;;;;;;;12.07;6.50;;;1.50;27.40;;;;;;5040378;28;20208;-74
2024/01/08 12:58:51;;;;;;;7.50;5.65;;;1.70;26.50;;;;;;5047408;28;20811;-74
2024/01/08 13:01:37;;;;;;;10.18;6.38;;;1.90;25.20;;;;;;5031537;28;20233;-75
2024/01/08 13:04:23;;;;;;;10.30;7.25;;;2.30;23.80;;;;;;5039033;28;20691;-74
2024/01/08 13:07:09;;;;;;;9.48;6.30;;;2.60;22.10;;;;;;5045881;28;20315;-75
2024/01/08 13:09:55;;;;;;;7.20;5.97;;;2.90;18.60;;;;;;5034762;28;20236;-77
2024/01/08 13:12:41;;;;;;;8.32;5.57;;;3.10;17.50;;;;;;5033101;28;20328;-73
2024/01/08 13:15:27;;;;;;;9.10;5.43;;;3.50;15.10;;;;;;5031145;28;20260;-75
2024/01/08 13:18:13;;;;;;;7.05;5.60;;;3.50;15.20;;;;;;5034454;28;20225;-74
2024/01/08 13:20:58;;;;;;;8.23;5.28;;;3.50;15.60;;;;;;5038888;28;20208;-75
2024/01/08 13:23:45;;;;;;;8.10;5.90;;;3.50;15.20;;;;;;5032183;28;20196;-76
2024/01/08 13:26:32;;;;;;;8.50;5.63;;;3.90;14.40;;;;;;5033199;28;20417;-76
2024/01/08 13:29:17;;;;;;;10.02;6.30;;;3.70;14.30;;;;;;5030406;28;20226;-75
2024/01/08 13:32:06;;;;;;;10.43;6.30;;;3.10;14.70;;;;;;5035290;28;20328;-76
2024/01/08 13:34:52;;;;;;;8.52;5.80;;;2.40;16.40;;;;;;5034283;28;20280;-75
2024/01/08 13:37:38;;;;;;;10.85;6.30;;;1.90;18.50;;;;;;5030169;28;20209;-76
2024/01/08 13:40:28;;;;;;;9.23;6.53;;;1.50;19.70;;;;;;5030760;28;20208;-75
2024/01/08 13:43:13;;;;;;;8.90;6.22;;;1.40;22.10;;;;;;5045406;28;20216;-76
2024/01/08 13:45:59;;;;;;;10.13;6.88;;;1.20;22.40;;;;;;5039902;28;20266;-75
2024/01/08 13:48:46;;;;;;;9.10;6.38;;;1.00;23.20;;;;;;5036121;28;20224;-75
2024/01/08 13:51:31;;;;;;;9.55;7.10;;;0.90;25.10;;;;;;5035109;28;20214;-75
2024/01/08 13:54:17;;;;;;;8.82;6.22;;;0.80;25.10;;;;;;5032366;28;20566;-75
2024/01/08 13:57:02;;;;;;;10.38;6.93;;;0.70;24.80;;;;;;5037483;28;20209;-75
2024/01/08 13:59:48;;;;;;;8.50;6.15;;;0.70;25.40;;;;;;5023260;28;20230;-75
2024/01/08 14:02:34;;;;;;;9.50;6.70;;;0.60;25.50;;;;;;5030940;28;20314;-75
2024/01/08 14:05:21;;;;;;;11.32;8.05;;;0.40;26.90;;;;;;5031142;28;20205;-74
2024/01/08 14:08:07;;;;;;;10.55;7.65;;;0.40;27.40;;;;;;5027119;28;20232;-75
2024/01/08 14:10:52;;;;;;;12.82;8.82;;;0.40;27.80;;;;;;5036737;28;20204;-76
2024/01/08 14:13:38;;;;;;;11.75;8.05;;;0.30;27.50;;;;;;5032788;28;20217;-75
2024/01/08 14:16:24;;;;;;;10.10;7.88;;;0.30;28.10;;;;;;5030692;28;20249;-75
2024/01/08 14:19:10;;;;;;;9.82;6.97;;;0.30;28.00;;;;;;5028263;28;20224;-75
2024/01/08 14:21:57;;;;;;;10.50;7.25;;;0.20;29.00;;;;;;5033075;28;20220;-75
2024/01/08 14:24:42;;;;;;;10.50;7.93;;;0.30;28.50;;;;;;5029723;28;20217;-75
2024/01/08 14:27:28;;;;;;;12.60;7.75;;;0.20;28.00;;;;;;5035877;28;20201;-75
2024/01/08 14:30:14;;;;;;;10.93;8.18;;;0.10;27.90;;;;;;5037143;28;20198;-75
2024/01/08 14:33:00;;;;;;;13.23;8.25;;;0.00;29.40;;;;;;5040695;28;20196;-75
2024/01/08 14:35:46;;;;;;;11.82;7.30;;;0.00;29.10;;;;;;5034454;28;20276;-75